Observations for Trim Patrick St
| Time | AQI | Temp °C | Hum % | Pres Pa | CO μg/m³ | H₂S μg/m³ | NO μg/m³ | NO₂ μg/m³ | O₃ μg/m³ | SO₂ μg/m³ | PM1 μg/m³ | PM2.5 μg/m³ | PM10 μg/m³ |
|---|---|---|---|---|---|---|---|---|---|---|---|---|---|
| Saturday 8 August 2026 | |||||||||||||
| 07:18 | 1 | 16.2 | 70 | 38,460 | 0.22 | 0.74 | 2.81 | 19.38 | 25.71 | 0 | 2.86 | 6.56 | 7.22 |
| 07:17 | 1 | 16.2 | 70 | 38,460 | 0.23 | 0.14 | 2.79 | 15.63 | 21.85 | 0 | 3.71 | 8.01 | 8.81 |
| 07:16 | 1 | 16.1 | 68 | 38,460 | 0.23 | 0 | 2.92 | 16.35 | 18.26 | 0 | 4.57 | 8.19 | 9.01 |
| 07:15 | 1 | 16.1 | 69 | 38,460 | 0.22 | 1.5 | 2.92 | 23.61 | 27.37 | 0 | 3.71 | 8.82 | 9.7 |
| 07:14 | 1 | 16 | 71 | 38,460 | 0.24 | 1.66 | 2.89 | 20 | 23.24 | 0 | 3.71 | 8.69 | 9.56 |
| 07:13 | 1 | 16 | 71 | 38,460 | 0.23 | 1.42 | 2.88 | 22.22 | 23.24 | 0 | 5.43 | 9.43 | 10.38 |
| 07:12 | 1 | 16 | 70 | 38,460 | 0.23 | 0.98 | 2.93 | 18.56 | 19.48 | 0 | 3.71 | 8.03 | 8.83 |
| 07:11 | 1 | 15.9 | 71 | 38,460 | 0.24 | 1.4 | 2.95 | 29.05 | 18.35 | 0 | 4.57 | 8.71 | 9.58 |
| 07:10 | 1 | 15.9 | 72 | 38,460 | 0.26 | 0.72 | 2.89 | 19.76 | 20.93 | 0 | 4.57 | 8.64 | 9.5 |
| 07:09 | 1 | 15.9 | 72 | 38,460 | 0.21 | 0.59 | 2.89 | 19.76 | 19.75 | 0 | 2.86 | 7.2 | 7.92 |
| 07:08 | 1 | 15.8 | 72 | 38,460 | 0.23 | 0.67 | 2.92 | 24.74 | 18.01 | 0 | 2.86 | 6.47 | 7.12 |
| 07:07 | 1 | 15.8 | 72 | 38,460 | 0.23 | 0 | 2.91 | 26.82 | 15.34 | 0 | 2.86 | 7.19 | 7.91 |
| 07:06 | 1 | 15.7 | 72 | 38,460 | 0.24 | 0 | 2.84 | 15.19 | 19.57 | 0 | 3.71 | 7.17 | 7.89 |
| 07:04 | 1 | 15.7 | 72 | 38,460 | 0.23 | 0.54 | 2.87 | 22.14 | 16.69 | 0 | 3.71 | 7.18 | 7.9 |
| 07:01 | 1 | 15.6 | 72 | 38,460 | 0.24 | 0 | 2.98 | 19.92 | 19.26 | 0 | 2.86 | 6.49 | 7.14 |
| 06:59 | 1 | 15.6 | 72 | 38,460 | 0.23 | 0 | 2.89 | 19.65 | 18.69 | 0 | 3.71 | 7.86 | 8.64 |
| 06:57 | 1 | 15.5 | 72 | 38,460 | 0.23 | 0.39 | 2.9 | 20.99 | 19.25 | 0 | 3.71 | 7.14 | 7.86 |
| 06:56 | 1 | 15.5 | 72 | 38,460 | 0.22 | 0 | 2.79 | 21.42 | 17.54 | 0 | 4.57 | 8.57 | 9.43 |
| 06:55 | 1 | 15.5 | 73 | 38,460 | 0.22 | 0.54 | 2.83 | 23.28 | 18.99 | 0 | 3.71 | 7.85 | 8.64 |
| 06:54 | 1 | 15.4 | 72 | 38,460 | 0.23 | 0 | 2.72 | 19.76 | 16.89 | 0 | 3.71 | 7.15 | 7.86 |